createdAt,value
2022-07-30T00:01:14.217Z,68.99
2022-07-30T00:03:40.709Z,69.22
2022-07-30T00:06:07.160Z,69.25
2022-07-30T00:08:33.880Z,69.55
2022-07-30T00:11:00.442Z,69.57
2022-07-30T00:13:26.883Z,69.44
2022-07-30T00:15:54.051Z,69.61
2022-07-30T00:18:20.672Z,69.38
2022-07-30T00:20:49.148Z,69.86
2022-07-30T00:23:15.757Z,69.70
2022-07-30T00:25:42.310Z,69.79
2022-07-30T00:28:08.675Z,69.98
2022-07-30T00:30:35.354Z,69.77
2022-07-30T00:33:02.035Z,70.33
2022-07-30T00:35:28.520Z,70.38
2022-07-30T00:37:55.024Z,70.53
2022-07-30T00:40:21.527Z,71.07
2022-07-30T00:42:48.633Z,70.97
2022-07-30T00:45:17.127Z,70.61
2022-07-30T00:47:44.437Z,70.96
2022-07-30T00:50:12.861Z,70.83
2022-07-30T00:52:40.735Z,70.65
2022-07-30T00:55:09.665Z,70.99
2022-07-30T00:57:36.446Z,70.75
2022-07-30T01:00:06.103Z,71.45
2022-07-30T01:02:32.686Z,71.16
2022-07-30T01:04:59.152Z,71.09
2022-07-30T01:07:27.315Z,71.18
2022-07-30T01:09:53.911Z,71.17
2022-07-30T01:12:24.873Z,70.93
2022-07-30T01:14:52.435Z,71.13
2022-07-30T01:17:19.051Z,71.31
2022-07-30T01:19:48.563Z,71.95
2022-07-30T01:22:30.907Z,71.51
2022-07-30T01:25:03.796Z,71.66
2022-07-30T01:27:33.953Z,71.76
2022-07-30T01:30:03.882Z,71.85
2022-07-30T01:32:33.183Z,71.88
2022-07-30T01:35:02.438Z,71.26
2022-07-30T01:37:31.578Z,71.68
2022-07-30T01:39:58.512Z,71.39
2022-07-30T01:42:28.559Z,71.65
2022-07-30T01:44:57.224Z,71.55
2022-07-30T01:47:25.187Z,71.75
2022-07-30T01:49:54.193Z,71.86
2022-07-30T01:52:23.274Z,72.04
2022-07-30T01:54:52.239Z,71.86
2022-07-30T01:57:20.330Z,71.53
2022-07-30T01:59:52.166Z,71.78
2022-07-30T02:02:19.569Z,71.52
2022-07-30T02:04:46.874Z,71.63
2022-07-30T02:07:39.157Z,71.68
2022-07-30T02:10:12.933Z,71.73
2022-07-30T02:12:50.154Z,71.99
2022-07-30T02:15:30.157Z,71.84
2022-07-30T02:18:11.783Z,71.56
2022-07-30T02:20:42.380Z,71.98
2022-07-30T02:23:12.530Z,71.77
2022-07-30T02:25:43.988Z,72.21
2022-07-30T02:28:14.657Z,71.54
2022-07-30T02:30:50.361Z,71.76
2022-07-30T02:33:23.684Z,71.66
2022-07-30T02:35:54.247Z,71.92
2022-07-30T02:38:21.685Z,71.68
2022-07-30T02:40:49.636Z,72.33
2022-07-30T02:43:17.816Z,71.91
2022-07-30T02:45:46.738Z,72.04
2022-07-30T02:48:35.192Z,71.51
2022-07-30T02:51:02.999Z,71.26
2022-07-30T02:53:30.918Z,71.20
2022-07-30T02:55:57.499Z,71.48
2022-07-30T02:58:25.997Z,71.45
2022-07-30T03:00:54.476Z,71.47
2022-07-30T03:03:21.943Z,71.71
2022-07-30T03:05:52.038Z,71.68
2022-07-30T03:08:19.959Z,71.93
2022-07-30T03:10:48.721Z,71.62
2022-07-30T03:13:16.944Z,71.38
2022-07-30T03:15:49.114Z,71.84
2022-07-30T03:18:17.822Z,71.85
2022-07-30T03:20:50.329Z,72.11
2022-07-30T03:23:19.079Z,71.70
2022-07-30T03:25:57.024Z,71.57
2022-07-30T03:28:24.946Z,71.43
2022-07-30T03:30:53.140Z,71.57
2022-07-30T03:33:20.827Z,71.58
2022-07-30T03:35:49.407Z,71.59
2022-07-30T03:38:17.524Z,71.68
2022-07-30T03:40:45.758Z,71.29
2022-07-30T03:43:32.541Z,71.55
2022-07-30T03:46:02.703Z,71.12
2022-07-30T03:48:34.172Z,71.20
2022-07-30T03:51:04.193Z,70.84
2022-07-30T03:53:31.682Z,70.94
2022-07-30T03:56:17.646Z,71.06
2022-07-30T03:59:04.564Z,71.26
2022-07-30T04:01:32.744Z,71.40
2022-07-30T04:04:08.296Z,71.46
2022-07-30T04:06:39.721Z,71.21
2022-07-30T04:09:11.652Z,71.32
2022-07-30T04:11:41.524Z,71.10
2022-07-30T04:14:13.891Z,71.04
2022-07-30T04:16:47.893Z,70.74
2022-07-30T04:19:31.471Z,70.97
2022-07-30T04:22:00.906Z,70.40
2022-07-30T04:24:29.432Z,70.76
2022-07-30T04:27:00.080Z,70.61
2022-07-30T04:29:27.500Z,70.38
2022-07-30T04:31:56.028Z,70.26
2022-07-30T04:34:52.809Z,70.26
2022-07-30T04:37:37.591Z,70.20
2022-07-30T04:40:05.247Z,70.48
2022-07-30T04:42:31.751Z,70.42
2022-07-30T04:45:06.233Z,70.35
2022-07-30T04:47:48.468Z,70.25
2022-07-30T04:50:36.351Z,70.32
2022-07-30T04:53:06.322Z,70.42
2022-07-30T04:55:37.878Z,70.49
2022-07-30T04:58:05.761Z,70.68
2022-07-30T05:00:41.223Z,70.45
2022-07-30T05:03:13.285Z,70.53
2022-07-30T05:05:43.753Z,70.47
2022-07-30T05:08:12.703Z,70.65
2022-07-30T05:10:39.316Z,70.28
2022-07-30T05:13:12.277Z,70.45
2022-07-30T05:15:40.945Z,70.31
2022-07-30T05:18:10.867Z,70.07
2022-07-30T05:20:40.309Z,69.99
2022-07-30T05:23:12.717Z,69.82
2022-07-30T05:25:41.293Z,70.27
2022-07-30T05:28:17.247Z,69.43
2022-07-30T05:30:46.587Z,69.84
2022-07-30T05:33:17.155Z,69.52
2022-07-30T05:35:44.087Z,69.82
2022-07-30T05:38:10.559Z,69.78
2022-07-30T05:40:50.638Z,69.39
2022-07-30T05:43:35.643Z,69.39
2022-07-30T05:46:02.567Z,68.94
2022-07-30T05:48:31.231Z,68.77
2022-07-30T05:51:00.009Z,68.90
2022-07-30T05:53:26.446Z,69.02
2022-07-30T05:56:11.529Z,68.65
2022-07-30T05:58:56.683Z,68.83
2022-07-30T06:01:43.109Z,68.46
2022-07-30T06:04:17.067Z,68.32
2022-07-30T06:06:48.431Z,68.70
2022-07-30T06:09:15.299Z,68.51
2022-07-30T06:11:41.818Z,68.37
2022-07-30T06:14:08.674Z,68.27
2022-07-30T06:16:35.231Z,68.07
2022-07-30T06:19:01.684Z,68.04
2022-07-30T06:22:05.508Z,67.85
2022-07-30T06:24:28.384Z,67.69
2022-07-30T06:27:14.108Z,67.33
2022-07-30T06:29:40.723Z,67.68
2022-07-30T06:32:08.295Z,67.59
2022-07-30T06:34:35.126Z,67.66
2022-07-30T06:37:01.951Z,67.74
2022-07-30T06:39:56.862Z,67.31
2022-07-30T06:42:36.519Z,67.08
2022-07-30T06:45:30.268Z,67.32
2022-07-30T06:48:20.463Z,66.94
2022-07-30T06:50:47.121Z,67.07
2022-07-30T06:53:13.766Z,66.51
2022-07-30T06:56:06.828Z,66.72
2022-07-30T06:58:42.891Z,66.45
2022-07-30T07:01:27.947Z,66.28
2022-07-30T07:03:55.744Z,66.13
2022-07-30T07:06:22.348Z,65.12
2022-07-30T07:08:48.792Z,65.30
2022-07-30T07:11:19.516Z,64.95
2022-07-30T07:13:49.832Z,63.83
2022-07-30T07:16:27.181Z,64.33
2022-07-30T07:18:55.938Z,63.54
2022-07-30T07:21:23.395Z,61.94
2022-07-30T07:23:52.647Z,61.57
2022-07-30T07:26:41.756Z,61.74
2022-07-30T07:29:09.392Z,60.95
2022-07-30T07:32:05.289Z,60.32
2022-07-30T07:34:22.863Z,61.33
2022-07-30T07:36:49.402Z,59.94
2022-07-30T07:39:16.626Z,59.31
2022-07-30T07:41:48.456Z,60.46
2022-07-30T07:44:19.370Z,59.00
2022-07-30T07:46:46.166Z,58.90
2022-07-30T07:49:12.784Z,59.28
2022-07-30T07:51:45.281Z,60.27
2022-07-30T07:54:22.249Z,58.54
2022-07-30T07:56:51.593Z,57.33
2022-07-30T07:59:19.669Z,57.01
2022-07-30T08:01:46.523Z,57.41
2022-07-30T08:04:17.646Z,56.92
2022-07-30T08:07:16.039Z,56.77
2022-07-30T08:10:00.496Z,56.62
2022-07-30T08:12:45.671Z,56.74
2022-07-30T08:15:41.495Z,55.89
2022-07-30T08:18:37.866Z,57.14
2022-07-30T08:21:15.533Z,55.63
2022-07-30T08:23:42.702Z,55.63
2022-07-30T08:26:09.698Z,55.40
2022-07-30T08:28:36.867Z,53.86
2022-07-30T08:31:06.381Z,55.44
2022-07-30T08:33:32.825Z,55.01
2022-07-30T08:36:04.235Z,55.01
2022-07-30T08:38:35.909Z,53.25
2022-07-30T08:41:02.360Z,51.83
2022-07-30T08:43:29.397Z,51.32
2022-07-30T08:45:58.732Z,51.01
2022-07-30T08:48:43.135Z,50.66
2022-07-30T08:51:12.341Z,51.62
2022-07-30T08:53:58.547Z,51.08
2022-07-30T08:56:25.078Z,49.18
2022-07-30T08:58:51.639Z,48.76
2022-07-30T09:01:18.069Z,50.10
2022-07-30T09:03:44.723Z,49.18
2022-07-30T09:06:11.479Z,49.88
2022-07-30T09:08:37.976Z,50.97
2022-07-30T09:11:04.717Z,51.96
2022-07-30T09:13:35.430Z,51.28
2022-07-30T09:16:02.705Z,49.29
2022-07-30T09:18:39.767Z,50.66
2022-07-30T09:21:28.375Z,50.83
2022-07-30T09:24:19.582Z,49.47
2022-07-30T09:27:05.524Z,49.58
2022-07-30T09:30:02.082Z,49.68
2022-07-30T09:32:54.776Z,50.07
2022-07-30T09:35:41.240Z,49.81
2022-07-30T09:38:11.387Z,49.18
2022-07-30T09:40:57.669Z,50.09
2022-07-30T09:43:49.288Z,49.90
2022-07-30T09:46:45.400Z,48.20
2022-07-30T09:49:16.770Z,48.72
2022-07-30T09:51:56.302Z,48.50
2022-07-30T09:54:51.225Z,48.29
2022-07-30T09:57:27.234Z,45.44
2022-07-30T10:00:16.797Z,46.74
2022-07-30T10:02:51.544Z,47.25
2022-07-30T10:05:37.882Z,46.85
2022-07-30T10:08:09.524Z,46.49
2022-07-30T10:10:47.128Z,46.60
2022-07-30T10:13:20.831Z,46.88
2022-07-30T10:15:49.505Z,46.64
2022-07-30T10:18:17.662Z,47.17
2022-07-30T10:21:05.552Z,46.19
2022-07-30T10:23:53.686Z,45.69
2022-07-30T10:26:39.303Z,45.81
2022-07-30T10:29:34.021Z,46.06
2022-07-30T10:32:00.815Z,45.05
2022-07-30T10:34:31.339Z,45.64
2022-07-30T10:37:06.832Z,46.23
2022-07-30T10:39:47.527Z,46.73
2022-07-30T10:42:36.586Z,46.96
2022-07-30T10:45:26.132Z,46.73
2022-07-30T10:47:54.819Z,47.65
2022-07-30T10:50:26.702Z,47.60
2022-07-30T10:52:58.334Z,48.26
2022-07-30T10:55:37.087Z,48.42
2022-07-30T10:58:11.376Z,49.93
2022-07-30T11:00:53.654Z,48.04
2022-07-30T11:03:39.949Z,48.64
2022-07-30T11:06:24.343Z,49.47
2022-07-30T11:08:51.585Z,49.90
2022-07-30T11:11:20.978Z,49.34
2022-07-30T11:14:07.443Z,49.39
2022-07-30T11:16:33.792Z,50.02
2022-07-30T11:22:23.204Z,49.83
2022-07-30T11:24:49.860Z,50.24
2022-07-30T11:27:38.149Z,50.60
2022-07-30T11:30:32.757Z,50.99
2022-07-30T11:33:20.027Z,50.01
2022-07-30T11:36:10.531Z,50.92
2022-07-30T11:39:10.797Z,51.15
2022-07-30T11:41:37.340Z,50.59
2022-07-30T11:44:26.057Z,50.45
2022-07-30T11:46:52.883Z,50.63
2022-07-30T11:49:20.145Z,50.12
2022-07-30T11:51:47.945Z,49.52
2022-07-30T11:54:15.059Z,50.93
2022-07-30T11:57:02.138Z,49.88
2022-07-30T11:59:30.304Z,50.10
2022-07-30T12:02:00.123Z,50.45
2022-07-30T12:04:26.945Z,48.08
2022-07-30T12:06:53.656Z,49.26
2022-07-30T12:09:24.304Z,49.71
2022-07-30T12:11:54.649Z,50.38
2022-07-30T12:14:21.106Z,48.98
2022-07-30T12:16:52.954Z,48.75
2022-07-30T12:19:19.565Z,48.68
2022-07-30T12:21:52.331Z,47.56
2022-07-30T12:24:24.833Z,46.97
2022-07-30T12:26:51.239Z,47.18
2022-07-30T12:29:18.196Z,44.21
2022-07-30T12:31:46.125Z,43.04
2022-07-30T12:34:20.729Z,43.60
2022-07-30T12:36:47.245Z,42.96
2022-07-30T12:39:24.023Z,42.46
2022-07-30T12:41:52.395Z,41.63
2022-07-30T12:44:40.292Z,41.04
2022-07-30T12:47:19.029Z,41.01
2022-07-30T12:49:48.785Z,38.87
2022-07-30T12:52:28.637Z,40.20
2022-07-30T12:55:15.917Z,39.62
2022-07-30T12:58:05.379Z,38.24
2022-07-30T13:00:52.121Z,37.55
2022-07-30T13:03:24.075Z,37.71
2022-07-30T13:05:55.316Z,37.93
2022-07-30T13:08:51.174Z,37.40
2022-07-30T13:11:18.862Z,37.29
2022-07-30T13:13:46.184Z,38.58
2022-07-30T13:16:13.867Z,38.75
2022-07-30T13:18:40.742Z,39.05
2022-07-30T13:21:09.148Z,39.05
2022-07-30T13:23:37.619Z,38.73
2022-07-30T13:26:04.787Z,39.10
2022-07-30T13:28:32.241Z,39.69
2022-07-30T13:30:59.239Z,39.64
2022-07-30T13:33:25.952Z,39.55
2022-07-30T13:35:52.916Z,39.72
2022-07-30T13:38:19.351Z,39.61
2022-07-30T13:40:45.850Z,39.72
2022-07-30T13:43:12.240Z,39.17
2022-07-30T13:45:38.927Z,39.51
2022-07-30T13:48:05.438Z,40.03
2022-07-30T13:50:31.895Z,38.66
2022-07-30T13:53:02.093Z,38.35
2022-07-30T13:55:29.485Z,37.32
2022-07-30T13:57:56.441Z,38.96
2022-07-30T14:00:23.095Z,40.74
2022-07-30T14:02:49.707Z,40.29
2022-07-30T14:05:16.256Z,40.53
2022-07-30T14:07:42.667Z,39.71
2022-07-30T14:10:09.523Z,38.96
2022-07-30T14:12:36.275Z,40.12
2022-07-30T14:15:03.004Z,40.17
2022-07-30T14:17:29.425Z,39.94
2022-07-30T14:19:56.081Z,40.17
2022-07-30T14:22:23.051Z,41.47
2022-07-30T14:24:49.515Z,41.29
2022-07-30T14:27:18.270Z,40.69
2022-07-30T14:29:44.670Z,40.74
2022-07-30T14:32:11.370Z,40.58
2022-07-30T14:34:37.751Z,41.49
2022-07-30T14:37:05.993Z,41.64
2022-07-30T14:39:36.306Z,41.70
2022-07-30T14:42:03.082Z,41.79
2022-07-30T14:44:29.559Z,42.40
2022-07-30T14:46:56.013Z,41.93
2022-07-30T14:49:22.740Z,42.22
2022-07-30T14:51:50.578Z,42.45
2022-07-30T14:54:17.070Z,42.46
2022-07-30T14:56:44.052Z,42.55
2022-07-30T14:59:10.987Z,43.02
2022-07-30T15:01:37.524Z,43.58
2022-07-30T15:04:04.158Z,43.46
2022-07-30T15:06:30.563Z,43.59
2022-07-30T15:08:57.035Z,43.50
2022-07-30T15:11:23.516Z,43.45
2022-07-30T15:13:52.256Z,43.33
2022-07-30T15:16:19.529Z,43.04
2022-07-30T15:18:46.035Z,42.76
2022-07-30T15:21:12.501Z,43.58
2022-07-30T15:23:39.009Z,43.22
2022-07-30T15:26:05.561Z,43.58
2022-07-30T15:28:32.041Z,43.50
2022-07-30T15:30:58.947Z,43.64
2022-07-30T15:33:25.595Z,44.33
2022-07-30T15:35:52.416Z,45.16
2022-07-30T15:38:18.832Z,45.65
2022-07-30T15:40:45.257Z,45.66
2022-07-30T15:43:11.753Z,45.63
2022-07-30T15:45:55.605Z,44.85
2022-07-30T15:48:27.723Z,41.99
2022-07-30T15:51:01.565Z,43.02
2022-07-30T15:53:28.749Z,43.44
2022-07-30T15:55:55.217Z,41.78
2022-07-30T15:58:21.647Z,43.14
2022-07-30T16:00:48.363Z,43.30
2022-07-30T16:03:14.927Z,42.89
2022-07-30T16:05:52.341Z,42.53
2022-07-30T16:08:21.016Z,43.26
2022-07-30T16:10:48.472Z,43.81
2022-07-30T16:13:15.309Z,44.04
2022-07-30T16:15:41.710Z,43.74
2022-07-30T16:18:08.607Z,43.79
2022-07-30T16:20:35.088Z,44.45
2022-07-30T16:23:01.657Z,44.90
2022-07-30T16:25:28.116Z,45.28
2022-07-30T16:27:54.639Z,45.62
2022-07-30T16:30:21.110Z,46.03
2022-07-30T16:32:47.744Z,45.74
2022-07-30T16:35:14.444Z,46.21
2022-07-30T16:37:40.874Z,47.00
2022-07-30T16:40:07.697Z,47.42
2022-07-30T16:42:34.252Z,47.16
2022-07-30T16:45:00.679Z,47.50
2022-07-30T16:47:27.208Z,46.42
2022-07-30T16:50:00.933Z,46.88
2022-07-30T16:52:27.679Z,46.57
2022-07-30T16:54:54.208Z,46.94
2022-07-30T16:57:20.674Z,46.63
2022-07-30T16:59:47.194Z,47.38
2022-07-30T17:02:13.729Z,46.86
2022-07-30T17:04:41.495Z,47.67
2022-07-30T17:07:07.968Z,46.97
2022-07-30T17:09:36.620Z,47.53
2022-07-30T17:12:11.831Z,47.31
2022-07-30T17:14:42.226Z,45.81
2022-07-30T17:17:13.768Z,46.00
2022-07-30T17:19:41.078Z,46.70
2022-07-30T17:22:07.619Z,47.11
2022-07-30T17:24:34.557Z,46.67
2022-07-30T17:27:01.139Z,47.27
2022-07-30T17:29:27.735Z,47.76
2022-07-30T17:31:59.203Z,47.75
2022-07-30T17:34:25.825Z,48.10
2022-07-30T17:36:53.155Z,48.86
2022-07-30T17:40:27.224Z,48.96
2022-07-30T17:42:11.316Z,49.49
2022-07-30T17:44:39.476Z,48.76
2022-07-30T17:47:07.942Z,49.19
2022-07-30T17:49:37.688Z,49.46
2022-07-30T17:52:05.608Z,50.15
2022-07-30T17:54:32.415Z,50.39
2022-07-30T17:56:58.975Z,51.03
2022-07-30T17:59:25.497Z,51.51
2022-07-30T18:01:51.911Z,51.63
2022-07-30T18:04:18.327Z,52.03
2022-07-30T18:06:44.779Z,52.66
2022-07-30T18:09:11.311Z,53.01
2022-07-30T18:11:38.067Z,53.01
2022-07-30T18:14:04.476Z,52.79
2022-07-30T18:16:30.936Z,53.74
2022-07-30T18:18:57.369Z,53.87
2022-07-30T18:21:23.821Z,54.51
2022-07-30T18:23:50.306Z,54.57
2022-07-30T18:26:18.313Z,54.88
2022-07-30T18:28:44.736Z,54.73
2022-07-30T18:31:12.351Z,55.00
2022-07-30T18:33:39.023Z,55.13
2022-07-30T18:36:05.625Z,54.67
2022-07-30T18:38:32.126Z,54.86
2022-07-30T18:40:58.638Z,55.31
2022-07-30T18:43:27.535Z,55.32
2022-07-30T18:45:54.547Z,54.84
2022-07-30T18:48:21.199Z,55.28
2022-07-30T18:50:48.102Z,55.65
2022-07-30T18:53:15.199Z,55.55
2022-07-30T18:55:43.209Z,55.83
2022-07-30T18:58:09.860Z,56.46
2022-07-30T19:00:37.222Z,56.66
2022-07-30T19:03:04.252Z,56.63
2022-07-30T19:05:30.878Z,56.85
2022-07-30T19:07:58.817Z,56.53
2022-07-30T19:10:26.449Z,57.16
2022-07-30T19:12:54.787Z,57.04
2022-07-30T19:15:21.482Z,56.68
2022-07-30T19:17:49.299Z,56.97
2022-07-30T19:20:15.734Z,57.21
2022-07-30T19:22:42.484Z,57.40
2022-07-30T19:25:10.761Z,57.10
2022-07-30T19:27:37.147Z,57.55
2022-07-30T19:30:05.261Z,57.60
2022-07-30T19:32:31.819Z,57.49
2022-07-30T19:34:58.238Z,57.31
2022-07-30T19:37:24.761Z,57.38
2022-07-30T19:40:05.378Z,57.59
2022-07-30T19:42:33.108Z,57.11
2022-07-30T19:45:01.173Z,56.00
2022-07-30T19:47:35.314Z,55.41
2022-07-30T19:50:06.648Z,55.13
2022-07-30T19:52:33.390Z,55.71
2022-07-30T19:55:01.544Z,55.95
2022-07-30T20:03:03.016Z,55.57
2022-07-30T20:05:31.394Z,55.52
2022-07-30T20:07:59.074Z,55.88
2022-07-30T20:10:26.812Z,56.13
2022-07-30T20:12:56.948Z,56.95
2022-07-30T20:15:23.416Z,57.28
2022-07-30T20:17:50.554Z,57.55
2022-07-30T20:20:26.082Z,58.03
2022-07-30T20:22:53.244Z,58.45
2022-07-30T20:25:19.958Z,58.76
2022-07-30T20:27:48.308Z,59.17
2022-07-30T20:30:15.611Z,59.54
2022-07-30T20:32:51.575Z,59.54
2022-07-30T20:35:20.034Z,60.31
2022-07-30T20:37:54.697Z,60.70
2022-07-30T20:40:22.985Z,60.72
2022-07-30T20:42:49.660Z,61.04
2022-07-30T20:45:16.179Z,61.28
2022-07-30T20:47:43.334Z,61.19
2022-07-30T20:50:14.463Z,61.55
2022-07-30T20:52:46.597Z,61.38
2022-07-30T20:55:16.757Z,61.53
2022-07-30T20:57:57.063Z,61.48
2022-07-30T21:00:29.402Z,61.58
2022-07-30T21:02:55.883Z,62.05
2022-07-30T21:05:22.450Z,62.11
2022-07-30T21:07:53.838Z,62.30
2022-07-30T21:10:23.695Z,61.86
2022-07-30T21:12:50.835Z,62.03
2022-07-30T21:15:23.196Z,61.96
2022-07-30T21:17:51.082Z,62.13
2022-07-30T21:20:17.530Z,62.15
2022-07-30T21:22:55.424Z,61.72
2022-07-30T21:25:23.446Z,61.64
2022-07-30T21:28:09.023Z,62.06
2022-07-30T21:30:45.007Z,62.35
2022-07-30T21:33:12.132Z,62.64
2022-07-30T21:35:38.744Z,62.87
2022-07-30T21:38:07.784Z,63.20
2022-07-30T21:40:35.329Z,63.42
2022-07-30T21:43:01.777Z,63.77
2022-07-30T21:45:38.743Z,64.02
2022-07-30T21:48:09.332Z,64.16
2022-07-30T21:50:39.381Z,64.36
2022-07-30T21:53:07.393Z,64.58
2022-07-30T21:55:53.089Z,64.51
2022-07-30T21:58:25.741Z,64.71
2022-07-30T22:00:54.903Z,65.00
2022-07-30T22:04:00.575Z,65.61
2022-07-30T22:06:12.691Z,65.64
2022-07-30T22:08:40.076Z,66.09
2022-07-30T22:11:09.065Z,66.34
2022-07-30T22:13:36.084Z,66.49
2022-07-30T22:16:18.255Z,66.83
2022-07-30T22:18:45.434Z,66.99
2022-07-30T22:21:12.026Z,67.29
2022-07-30T22:23:41.173Z,67.33
2022-07-30T22:26:26.483Z,67.05
2022-07-30T22:28:53.176Z,66.99
2022-07-30T22:31:21.290Z,67.15
2022-07-30T22:33:50.387Z,67.16
2022-07-30T22:36:24.579Z,67.15
2022-07-30T22:38:58.497Z,66.99
2022-07-30T22:41:26.401Z,67.08
2022-07-30T22:43:55.727Z,67.24
2022-07-30T22:46:31.023Z,67.07
2022-07-30T22:48:59.256Z,66.93
2022-07-30T22:52:01.543Z,67.21
2022-07-30T22:54:13.402Z,67.42
2022-07-30T22:56:41.336Z,67.30
2022-07-30T22:59:07.772Z,67.15
2022-07-30T23:01:34.208Z,67.08
2022-07-30T23:04:01.328Z,67.40
2022-07-30T23:06:28.404Z,67.13
2022-07-30T23:08:56.941Z,67.28
2022-07-30T23:11:23.443Z,67.57
2022-07-30T23:12:15.501Z,56.24
2022-07-30T23:12:16.686Z,55.60
2022-07-30T23:13:53.678Z,67.58
2022-07-30T23:16:20.232Z,67.96
2022-07-30T23:18:46.722Z,68.05
2022-07-30T23:21:13.564Z,67.71
2022-07-30T23:23:40.482Z,68.09
2022-07-30T23:26:08.484Z,68.28
2022-07-30T23:28:36.697Z,68.92
2022-07-30T23:31:04.362Z,68.43
2022-07-30T23:33:31.760Z,68.64
2022-07-30T23:36:00.353Z,69.14
2022-07-30T23:38:27.343Z,68.87
2022-07-30T23:40:54.445Z,69.42
2022-07-30T23:43:20.889Z,69.36
2022-07-30T23:45:47.366Z,69.60
2022-07-30T23:48:14.904Z,69.31
2022-07-30T23:50:41.543Z,69.32
2022-07-30T23:53:07.971Z,69.20
2022-07-30T23:55:34.596Z,69.41
2022-07-30T23:58:01.098Z,69.58
